Time;durP1;ratioP1;P1;durP2;ratioP2;P2;SDS_P1;SDS_P2;PMS_P1;PMS_P2;Temp;Humidity;BMP_temperature;BMP_pressure;BME280_temperature;BME280_humidity;BME280_pressure;Samples;Min_cycle;Max_cycle;Signal;HPM_P1;HPM_P2
2023/11/10 00:02:02;;;;;;;3.67;0.40;;;;;;;8.81;100.00;100184.69;5090542;28;20039;-68
2023/11/10 00:04:28;;;;;;;1.73;0.50;;;;;;;8.78;100.00;100185.78;5086404;28;20035;-68
2023/11/10 00:06:53;;;;;;;2.97;0.43;;;;;;;8.80;100.00;100189.06;5090244;28;20047;-68
2023/11/10 00:09:20;;;;;;;1.88;0.47;;;;;;;8.87;100.00;100178.94;5089756;28;20507;-68
2023/11/10 00:11:45;;;;;;;1.42;0.50;;;;;;;8.91;100.00;100175.13;5089106;28;20398;-67
2023/11/10 00:14:11;;;;;;;2.47;0.73;;;;;;;8.89;100.00;100170.06;5088445;28;20028;-67
2023/11/10 00:16:36;;;;;;;6.60;1.10;;;;;;;8.89;100.00;100162.25;5088339;28;20031;-67
2023/11/10 00:19:03;;;;;;;2.40;1.02;;;;;;;8.87;100.00;100161.59;5090408;28;20016;-67
2023/11/10 00:21:29;;;;;;;3.55;1.17;;;;;;;8.89;100.00;100161.44;5088324;28;20479;-67
2023/11/10 00:23:54;;;;;;;2.22;1.05;;;;;;;8.87;100.00;100161.59;5090831;28;20027;-68
2023/11/10 00:26:20;;;;;;;3.97;0.70;;;;;;;8.85;100.00;100160.91;5093633;28;20036;-67
2023/11/10 00:28:46;;;;;;;6.10;0.80;;;;;;;8.74;100.00;100158.47;5094151;28;20032;-67
2023/11/10 00:31:11;;;;;;;2.55;0.80;;;;;;;8.77;100.00;100160.78;5098781;28;20039;-67
2023/11/10 00:33:37;;;;;;;2.60;0.57;;;;;;;8.81;100.00;100159.53;5090634;28;20035;-67
2023/11/10 00:36:03;;;;;;;2.55;0.80;;;;;;;8.82;100.00;100157.75;5091283;28;20024;-67
2023/11/10 00:38:28;;;;;;;5.82;1.10;;;;;;;8.75;100.00;100149.72;5095145;28;20494;-67
2023/11/10 00:40:54;;;;;;;3.97;0.60;;;;;;;8.66;100.00;100145.34;5099005;28;20042;-67
2023/11/10 00:43:19;;;;;;;3.70;1.02;;;;;;;8.63;100.00;100140.44;5099360;28;20089;-67
2023/11/10 00:45:45;;;;;;;2.13;0.60;;;;;;;8.63;100.00;100137.84;5099088;28;23319;-67
2023/11/10 00:48:10;;;;;;;2.33;0.60;;;;;;;8.62;100.00;100136.19;5099563;28;20036;-67
2023/11/10 00:50:35;;;;;;;1.45;0.45;;;;;;;8.61;100.00;100127.59;5091952;28;20020;-68
2023/11/10 00:53:01;;;;;;;4.63;0.95;;;;;;;8.61;100.00;100118.97;5103294;28;20042;-68
2023/11/10 00:55:26;;;;;;;3.25;0.57;;;;;;;8.63;100.00;100111.88;5099652;28;20043;-67
2023/11/10 00:57:53;;;;;;;4.47;0.75;;;;;;;8.70;100.00;100115.53;5094033;28;20039;-67
2023/11/10 01:00:18;;;;;;;4.07;0.57;;;;;;;8.71;100.00;100112.00;5088551;28;20024;-68
2023/11/10 01:02:44;;;;;;;1.52;0.47;;;;;;;8.69;100.00;100103.53;5088412;28;20046;-68
2023/11/10 01:05:13;;;;;;;2.30;0.40;;;;;;;8.70;100.00;100102.56;5088875;28;20027;-68
2023/11/10 01:07:39;;;;;;;1.73;0.30;;;;;;;8.69;100.00;100108.72;5087945;28;20032;-68
2023/11/10 01:10:06;;;;;;;3.72;0.70;;;;;;;8.71;100.00;100104.19;5088864;28;20048;-67
2023/11/10 01:12:31;;;;;;;1.80;0.50;;;;;;;8.73;100.00;100104.88;5090194;28;20064;-67
2023/11/10 01:14:57;;;;;;;3.92;0.30;;;;;;;8.70;100.00;100089.56;5088448;28;20051;-67
2023/11/10 01:17:22;;;;;;;1.23;0.40;;;;;;;8.69;100.00;100082.75;5089154;28;20543;-67
2023/11/10 01:19:48;;;;;;;1.08;0.50;;;;;;;8.68;100.00;100083.69;5089095;28;20077;-67
2023/11/10 01:22:13;;;;;;;2.72;0.40;;;;;;;8.66;100.00;100083.03;5087411;28;20044;-67
2023/11/10 01:24:39;;;;;;;0.98;0.30;;;;;;;8.63;100.00;100068.53;5089162;28;20077;-67
2023/11/10 01:27:04;;;;;;;1.98;0.50;;;;;;;8.66;100.00;100072.63;5088043;28;20044;-68
2023/11/10 01:29:30;;;;;;;2.42;0.35;;;;;;;8.68;100.00;100064.69;5087284;28;20040;-67
2023/11/10 01:31:55;;;;;;;2.50;0.50;;;;;;;8.68;100.00;100064.69;5087538;28;20121;-67
2023/11/10 01:34:21;;;;;;;0.90;0.40;;;;;;;8.74;100.00;100070.16;5085991;28;20555;-67
2023/11/10 01:36:47;;;;;;;3.63;0.35;;;;;;;8.77;100.00;100069.03;5088771;28;20032;-67
2023/11/10 01:39:12;;;;;;;1.42;0.30;;;;;;;8.80;100.00;100064.38;5088861;28;20035;-67
2023/11/10 01:41:38;;;;;;;2.47;0.30;;;;;;;8.75;100.00;100056.19;5087392;28;20027;-67
2023/11/10 01:44:03;;;;;;;2.53;0.57;;;;;;;8.72;100.00;100048.69;5086853;28;20051;-68
2023/11/10 01:46:44;;;;;;;1.30;0.20;;;;;;;8.70;100.00;100035.03;5089472;28;20051;-67
2023/11/10 01:49:11;;;;;;;2.45;0.20;;;;;;;8.69;100.00;100030.78;5087498;28;20032;-67
2023/11/10 01:51:38;;;;;;;0.98;0.20;;;;;;;8.71;100.00;100030.66;5088208;28;20043;-67
2023/11/10 01:54:05;;;;;;;3.08;0.40;;;;;;;8.69;100.00;100030.78;5087555;28;20454;-67
2023/11/10 01:56:33;;;;;;;1.13;0.30;;;;;;;8.69;100.00;100035.16;5086961;28;20395;-67
2023/11/10 01:59:00;;;;;;;1.05;0.35;;;;;;;8.65;100.00;100022.47;5093246;28;20352;-68
2023/11/10 02:01:26;;;;;;;1.58;0.30;;;;;;;8.61;100.00;100002.94;5088752;28;20483;-67
2023/11/10 02:03:52;;;;;;;3.13;0.30;;;;;;;8.62;100.00;100001.97;5089703;28;20080;-67
2023/11/10 02:06:17;;;;;;;1.00;0.20;;;;;;;8.62;100.00;100003.75;5088412;28;20036;-68
2023/11/10 02:08:44;;;;;;;4.63;0.20;;;;;;;8.66;100.00;99999.91;5087528;28;20123;-67
2023/11/10 02:11:09;;;;;;;1.10;0.20;;;;;;;8.69;100.00;99994.44;5089215;28;20063;-67
2023/11/10 02:13:35;;;;;;;0.43;0.10;;;;;;;8.72;100.00;99994.16;5087274;28;20056;-67
2023/11/10 02:16:00;;;;;;;0.70;0.15;;;;;;;8.74;100.00;99987.03;5087800;28;20036;-67
2023/11/10 02:18:25;;;;;;;1.65;0.30;;;;;;;8.70;100.00;99975.28;5088225;28;20036;-67
2023/11/10 02:20:51;;;;;;;1.73;0.30;;;;;;;8.67;100.00;99988.56;5088782;28;20056;-67
2023/11/10 02:23:17;;;;;;;2.30;0.15;;;;;;;8.71;100.00;99999.50;5089148;28;20510;-67
2023/11/10 02:25:42;;;;;;;2.47;0.20;;;;;;;8.74;100.00;99991.41;5087612;28;20477;-66
2023/11/10 02:28:08;;;;;;;0.40;0.17;;;;;;;8.74;100.00;99974.03;5090677;28;20040;-66
2023/11/10 02:30:33;;;;;;;0.65;0.20;;;;;;;8.66;100.00;99968.75;5092370;28;20028;-67
2023/11/10 02:32:59;;;;;;;1.10;0.20;;;;;;;8.65;100.00;99967.94;5090483;28;20057;-67
2023/11/10 02:35:24;;;;;;;0.45;0.10;;;;;;;8.66;100.00;99960.97;5090762;28;20036;-67
2023/11/10 02:37:50;;;;;;;0.80;0.10;;;;;;;8.70;100.00;99959.72;5091542;28;20054;-67
2023/11/10 02:40:15;;;;;;;1.88;0.15;;;;;;;8.76;100.00;99948.75;5090961;28;20039;-67
2023/11/10 02:42:41;;;;;;;1.10;0.20;;;;;;;8.76;100.00;99953.94;5092305;28;20055;-67
2023/11/10 02:45:06;;;;;;;1.15;0.20;;;;;;;8.75;100.00;99954.91;5088368;28;20035;-67
2023/11/10 02:47:32;;;;;;;0.47;0.10;;;;;;;8.70;100.00;99941.53;5097892;28;20028;-67
2023/11/10 02:49:57;;;;;;;0.43;0.10;;;;;;;8.68;100.00;99930.47;5097568;28;20067;-67
2023/11/10 02:52:23;;;;;;;1.30;0.10;;;;;;;8.69;100.00;99937.31;5093535;28;20036;-67
2023/11/10 02:54:48;;;;;;;0.43;0.10;;;;;;;8.75;100.00;99925.50;5096666;28;20031;-67
2023/11/10 02:57:14;;;;;;;0.30;0.10;;;;;;;8.78;100.00;99918.25;5094358;28;20024;-67
2023/11/10 02:59:39;;;;;;;0.57;0.10;;;;;;;8.75;100.00;99902.97;5091239;28;20043;-67
2023/11/10 03:02:05;;;;;;;0.70;0.10;;;;;;;8.78;100.00;99905.25;5089840;28;20059;-67
2023/11/10 03:04:30;;;;;;;0.30;0.10;;;;;;;8.82;100.00;99901.41;5089237;28;20732;-66
2023/11/10 03:06:56;;;;;;;1.15;0.13;;;;;;;8.87;100.00;99903.56;5089717;28;20039;-67
2023/11/10 03:09:23;;;;;;;0.40;0.10;;;;;;;8.90;100.00;99905.88;5090539;28;20039;-67
2023/11/10 03:11:49;;;;;;;0.88;0.10;;;;;;;8.86;100.00;99897.56;5091098;28;20039;-67
2023/11/10 03:14:14;;;;;;;2.38;0.10;;;;;;;8.86;100.00;99904.53;5090761;28;20036;-67
2023/11/10 03:16:40;;;;;;;0.20;0.10;;;;;;;8.91;100.00;99905.72;5092614;28;20032;-67
2023/11/10 03:19:06;;;;;;;0.20;0.10;;;;;;;8.96;100.00;99898.31;5089568;28;20032;-67
2023/11/10 03:21:32;;;;;;;0.52;0.10;;;;;;;9.02;100.00;99907.28;5090598;28;20044;-67
2023/11/10 03:23:57;;;;;;;0.80;0.10;;;;;;;9.06;100.00;99900.00;5090383;28;20036;-67
2023/11/10 03:26:23;;;;;;;0.43;0.10;;;;;;;9.07;100.00;99901.63;5091689;28;20043;-67
2023/11/10 03:28:48;;;;;;;0.55;0.10;;;;;;;9.04;100.00;99894.94;5090867;28;20032;-67
2023/11/10 03:31:14;;;;;;;1.75;0.28;;;;;;;9.01;100.00;99889.22;5091687;28;20035;-67
2023/11/10 03:33:39;;;;;;;1.60;0.10;;;;;;;9.03;100.00;99893.31;5089897;28;20039;-68
2023/11/10 03:36:05;;;;;;;3.40;0.10;;;;;;;9.02;100.00;99881.28;5090003;28;20038;-67
2023/11/10 03:38:31;;;;;;;0.40;0.13;;;;;;;8.93;100.00;99877.81;5088908;28;20024;-67
2023/11/10 03:40:58;;;;;;;0.55;0.10;;;;;;;8.82;100.00;99878.03;5090205;28;20028;-67
2023/11/10 03:43:25;;;;;;;0.47;0.03;;;;;;;8.74;100.00;99864.97;5090643;28;20028;-68
2023/11/10 03:45:51;;;;;;;0.60;0.10;;;;;;;8.74;100.00;99867.56;5090225;28;20032;-67
2023/11/10 03:48:17;;;;;;;2.10;0.05;;;;;;;8.76;100.00;99854.44;5089532;28;20032;-67
2023/11/10 03:50:45;;;;;;;0.88;0.10;;;;;;;8.74;100.00;99853.75;5089723;28;20062;-68
2023/11/10 03:53:10;;;;;;;0.63;0.10;;;;;;;8.73;100.00;99845.16;5090003;28;20032;-67
2023/11/10 03:55:36;;;;;;;0.40;0.10;;;;;;;8.74;100.00;99845.97;5086921;28;20048;-68
2023/11/10 03:58:02;;;;;;;0.82;0.10;;;;;;;8.75;100.00;99829.41;5091337;28;20108;-67
2023/11/10 04:00:28;;;;;;;0.20;0.03;;;;;;;8.77;100.00;99830.09;5090659;28;20054;-67
2023/11/10 04:02:54;;;;;;;0.70;0.10;;;;;;;8.76;100.00;99816.28;5089993;28;20031;-67
2023/11/10 04:05:19;;;;;;;0.68;0.10;;;;;;;8.76;100.00;99813.69;5091125;28;20031;-67
2023/11/10 04:07:45;;;;;;;0.40;0.10;;;;;;;8.78;100.00;99831.72;5090062;28;20038;-67
2023/11/10 04:10:10;;;;;;;1.55;0.20;;;;;;;8.84;100.00;99831.13;5090133;28;20042;-67
2023/11/10 04:12:36;;;;;;;1.05;0.20;;;;;;;8.91;100.00;99832.97;5090098;28;20028;-67
2023/11/10 04:15:02;;;;;;;1.30;0.10;;;;;;;8.95;100.00;99818.72;5090091;28;20024;-66
2023/11/10 04:17:27;;;;;;;1.23;0.10;;;;;;;8.97;100.00;99824.59;5086837;28;20498;-66
2023/11/10 04:19:53;;;;;;;0.85;0.10;;;;;;;8.94;100.00;99827.50;5089430;28;20053;-66
2023/11/10 04:22:18;;;;;;;0.20;0.10;;;;;;;8.93;100.00;99831.06;5090609;28;20071;-66
2023/11/10 04:24:44;;;;;;;0.08;0.00;;;;;;;8.93;100.00;99836.25;5087838;28;20036;-66
2023/11/10 04:27:09;;;;;;;1.42;0.10;;;;;;;8.99;100.00;99846.03;5090300;28;20024;-66
2023/11/10 04:29:36;;;;;;;0.15;0.13;;;;;;;9.01;100.00;99834.66;5094732;28;20097;-66
2023/11/10 04:32:05;;;;;;;1.35;0.20;;;;;;;8.97;100.00;99829.78;5096508;28;20046;-66
2023/11/10 04:34:30;;;;;;;0.52;0.10;;;;;;;8.85;100.00;99818.00;5095679;28;20031;-66
2023/11/10 04:36:56;;;;;;;1.27;0.10;;;;;;;8.73;100.00;99815.75;5100114;28;20355;-66
2023/11/10 04:39:22;;;;;;;0.88;0.20;;;;;;;8.68;100.00;99805.81;5100369;28;20033;-66
2023/11/10 04:41:49;;;;;;;0.40;0.10;;;;;;;8.65;100.00;99812.13;5095804;28;20028;-66
2023/11/10 04:44:15;;;;;;;0.25;0.10;;;;;;;8.65;100.00;99806.94;5096039;28;20559;-66
2023/11/10 04:46:41;;;;;;;1.98;0.13;;;;;;;8.61;100.00;99797.78;5095868;28;20028;-66
2023/11/10 04:49:07;;;;;;;0.93;0.10;;;;;;;8.62;100.00;99796.81;5094635;28;20111;-66
2023/11/10 04:51:33;;;;;;;0.40;0.10;;;;;;;8.62;100.00;99794.22;5097770;28;20039;-66
2023/11/10 04:53:59;;;;;;;0.20;0.10;;;;;;;8.64;100.00;99794.09;5096563;28;20032;-66
2023/11/10 04:56:25;;;;;;;0.63;0.17;;;;;;;8.69;100.00;99798.84;5104923;28;20032;-66
2023/11/10 04:58:50;;;;;;;0.30;0.10;;;;;;;8.73;100.00;99797.56;5097992;28;20050;-66
2023/11/10 05:01:15;;;;;;;0.63;0.10;;;;;;;8.74;100.00;99786.22;5105433;28;20053;-66
2023/11/10 05:03:41;;;;;;;1.55;0.10;;;;;;;8.75;100.00;99785.25;5098553;28;20386;-66
2023/11/10 05:06:08;;;;;;;0.20;0.10;;;;;;;8.81;100.00;99784.66;5089815;28;20036;-66
2023/11/10 05:08:34;;;;;;;0.20;0.00;;;;;;;8.82;100.00;99781.91;5088876;28;20040;-66
2023/11/10 05:10:59;;;;;;;0.20;0.03;;;;;;;8.82;100.00;99776.72;5087554;28;20104;-66
2023/11/10 05:13:24;;;;;;;0.20;0.10;;;;;;;8.84;100.00;99780.00;5088646;28;20032;-67
2023/11/10 05:15:50;;;;;;;0.57;0.10;;;;;;;8.84;100.00;99769.59;5088707;28;20471;-67
2023/11/10 05:18:15;;;;;;;0.20;0.10;;;;;;;8.86;100.00;99772.88;5088778;28;20040;-66
2023/11/10 05:20:41;;;;;;;0.30;0.10;;;;;;;8.86;100.00;99772.88;5088004;28;20055;-66
2023/11/10 05:23:06;;;;;;;0.60;0.10;;;;;;;8.86;100.00;99767.66;5102368;28;20024;-67
2023/11/10 05:25:32;;;;;;;0.85;0.10;;;;;;;8.87;100.00;99763.28;5087948;28;20119;-67
2023/11/10 05:27:57;;;;;;;0.35;0.00;;;;;;;8.84;100.00;99764.41;5093427;28;20024;-67
2023/11/10 05:30:24;;;;;;;0.32;0.00;;;;;;;8.85;100.00;99766.03;5089084;28;20041;-67
2023/11/10 05:32:50;;;;;;;2.75;0.10;;;;;;;8.85;100.00;99758.25;5089187;28;20111;-67
2023/11/10 05:35:15;;;;;;;0.25;0.10;;;;;;;8.87;100.00;99751.13;5086247;28;20591;-67
2023/11/10 05:37:40;;;;;;;0.25;0.10;;;;;;;8.88;100.00;99754.53;5087192;28;20379;-67
2023/11/10 05:40:09;;;;;;;1.40;0.00;;;;;;;8.87;100.00;99748.53;5087801;28;20475;-67
2023/11/10 05:42:36;;;;;;;0.28;0.10;;;;;;;8.86;100.00;99738.28;5088400;28;20044;-67
2023/11/10 05:45:01;;;;;;;1.13;0.20;;;;;;;8.87;100.00;99732.94;5089420;28;20035;-67
2023/11/10 05:47:27;;;;;;;0.73;0.10;;;;;;;8.93;100.00;99731.50;5086218;28;20040;-67
2023/11/10 05:49:53;;;;;;;3.15;0.10;;;;;;;8.98;100.00;99730.06;5086574;28;20024;-68
2023/11/10 05:52:19;;;;;;;1.33;0.10;;;;;;;9.00;100.00;99732.50;5088576;28;20028;-68
2023/11/10 05:54:44;;;;;;;0.90;0.10;;;;;;;9.02;100.00;99735.78;5089759;28;20028;-68
2023/11/10 05:57:10;;;;;;;1.67;0.10;;;;;;;9.04;100.00;99728.66;5090494;28;20024;-68
2023/11/10 05:59:36;;;;;;;0.85;0.10;;;;;;;9.11;100.00;99724.47;5089723;28;20032;-68
2023/11/10 06:02:02;;;;;;;0.93;0.10;;;;;;;9.19;100.00;99736.72;5089776;28;20036;-68
2023/11/10 06:04:27;;;;;;;2.05;0.10;;;;;;;9.27;100.00;99736.75;5089643;28;20024;-69
2023/11/10 06:06:53;;;;;;;1.17;0.10;;;;;;;9.23;100.00;99733.66;5090333;28;20491;-68
2023/11/10 06:09:21;;;;;;;0.40;0.10;;;;;;;9.17;100.00;99734.25;5090356;28;20124;-68
2023/11/10 06:11:50;;;;;;;0.52;0.03;;;;;;;9.16;100.00;99743.03;5089553;28;20100;-67
2023/11/10 06:14:17;;;;;;;0.38;0.10;;;;;;;9.19;100.00;99747.09;5090357;28;20105;-67
2023/11/10 06:16:44;;;;;;;0.88;0.30;;;;;;;9.21;100.00;99745.16;5087933;28;20032;-67
2023/11/10 06:19:10;;;;;;;0.70;0.10;;;;;;;9.18;100.00;99740.28;5092118;28;20471;-67
2023/11/10 06:21:35;;;;;;;0.50;0.20;;;;;;;9.19;100.00;99736.72;5093637;28;20055;-67
2023/11/10 06:24:02;;;;;;;1.75;0.10;;;;;;;9.18;100.00;99730.69;5094029;28;20032;-67
2023/11/10 06:26:28;;;;;;;0.52;0.10;;;;;;;9.17;100.00;99736.03;5093715;28;20032;-67
2023/11/10 06:28:54;;;;;;;0.50;0.10;;;;;;;9.17;100.00;99734.25;5093787;28;20506;-67
2023/11/10 06:31:20;;;;;;;0.57;0.10;;;;;;;9.15;100.00;99736.19;5094078;28;20040;-68
2023/11/10 06:33:48;;;;;;;0.47;0.10;;;;;;;9.07;100.00;99737.91;5093567;28;20043;-67
2023/11/10 06:36:16;;;;;;;0.20;0.10;;;;;;;9.02;100.00;99734.97;5093950;28;20102;-68
2023/11/10 06:38:43;;;;;;;0.35;0.10;;;;;;;8.99;100.00;99736.88;5093650;28;20024;-68
2023/11/10 06:41:08;;;;;;;1.23;0.10;;;;;;;8.99;100.00;99749.06;5093641;28;20369;-68
2023/11/10 06:43:34;;;;;;;0.60;0.20;;;;;;;9.01;100.00;99743.72;5093106;28;20031;-68
2023/11/10 06:46:00;;;;;;;1.75;0.25;;;;;;;8.99;100.00;99752.47;5095137;28;20057;-68
2023/11/10 06:48:25;;;;;;;1.98;0.20;;;;;;;8.97;100.00;99749.25;5093663;27;20127;-68
2023/11/10 06:50:51;;;;;;;0.47;0.20;;;;;;;8.97;100.00;99741.47;5093605;28;20123;-68
2023/11/10 06:53:16;;;;;;;0.88;0.20;;;;;;;8.97;100.00;99751.03;5093174;28;20057;-68
2023/11/10 06:55:42;;;;;;;1.73;0.30;;;;;;;8.98;100.00;99750.84;5093210;28;20085;-68
2023/11/10 06:58:08;;;;;;;1.15;0.20;;;;;;;8.94;100.00;99753.94;5093696;28;20020;-69
2023/11/10 07:00:36;;;;;;;1.85;0.20;;;;;;;8.89;100.00;99749.19;5092742;28;20038;-68
2023/11/10 07:03:02;;;;;;;1.40;0.20;;;;;;;8.88;100.00;99749.34;5093655;28;20020;-68
2023/11/10 07:05:28;;;;;;;0.90;0.20;;;;;;;8.88;100.00;99744.97;5092761;28;20038;-69
2023/11/10 07:07:54;;;;;;;0.88;0.20;;;;;;;8.89;100.00;99744.00;5093308;28;20027;-69
2023/11/10 07:10:20;;;;;;;0.70;0.10;;;;;;;8.90;100.00;99737.81;5097202;28;20031;-68
2023/11/10 07:12:46;;;;;;;0.57;0.10;;;;;;;8.97;100.00;99746.66;5092023;28;20040;-68
2023/11/10 07:15:11;;;;;;;2.15;0.20;;;;;;;9.05;100.00;99737.25;5093224;28;20086;-69
2023/11/10 07:17:37;;;;;;;0.63;0.10;;;;;;;9.09;100.00;99741.19;5092638;28;20036;-69
2023/11/10 07:20:06;;;;;;;0.50;0.10;;;;;;;9.09;100.00;99734.19;5093467;28;20047;-68
2023/11/10 07:22:32;;;;;;;0.47;0.10;;;;;;;9.05;100.00;99734.66;5092796;28;20047;-69
2023/11/10 07:24:58;;;;;;;1.02;0.20;;;;;;;9.04;100.00;99740.81;5092783;28;20368;-69
2023/11/10 07:27:23;;;;;;;0.30;0.00;;;;;;;8.95;100.00;99735.59;5092891;28;20039;-69
2023/11/10 07:29:49;;;;;;;0.75;0.10;;;;;;;8.92;100.00;99730.69;5091447;28;20044;-69
2023/11/10 07:32:14;;;;;;;0.10;0.00;;;;;;;8.91;100.00;99729.06;5092820;28;20043;-68
2023/11/10 07:34:40;;;;;;;0.10;0.00;;;;;;;8.90;100.00;99737.81;5092432;28;20479;-69
2023/11/10 07:37:05;;;;;;;0.00;0.00;;;;;;;8.89;100.00;99725.81;5093186;28;20150;-69
2023/11/10 07:39:31;;;;;;;0.10;0.00;;;;;;;8.91;100.00;99723.88;5091333;28;20032;-69
2023/11/10 07:41:56;;;;;;;0.10;0.00;;;;;;;8.96;100.00;99723.41;5092655;28;20100;-69
2023/11/10 07:44:22;;;;;;;0.40;0.00;;;;;;;9.01;100.00;99721.16;5092836;28;20043;-69
2023/11/10 07:46:48;;;;;;;0.52;0.32;;;;;;;9.11;100.00;99713.25;5091563;28;20028;-69
2023/11/10 07:49:14;;;;;;;0.20;0.08;;;;;;;9.20;100.00;99717.53;5087993;28;20475;-69
2023/11/10 07:51:40;;;;;;;0.77;0.00;;;;;;;9.25;100.00;99723.91;5092498;28;20502;-69
2023/11/10 07:54:05;;;;;;;0.22;0.00;;;;;;;9.30;100.00;99719.06;5092760;28;20062;-69
2023/11/10 07:56:31;;;;;;;2.38;0.10;;;;;;;9.35;100.00;99710.81;5092375;28;20093;-69
2023/11/10 07:58:56;;;;;;;0.30;0.00;;;;;;;9.39;100.00;99701.75;5092602;28;20038;-69
2023/11/10 08:01:23;;;;;;;0.40;0.05;;;;;;;9.41;100.00;99702.41;5092379;28;20044;-69
2023/11/10 08:03:48;;;;;;;0.20;0.00;;;;;;;9.46;100.00;99697.50;5090873;28;20024;-69
2023/11/10 08:06:14;;;;;;;6.60;0.20;;;;;;;9.49;100.00;99691.19;5091914;28;20455;-69
2023/11/10 08:08:40;;;;;;;0.17;0.00;;;;;;;9.56;100.00;99695.63;5092080;28;20531;-69
2023/11/10 08:11:05;;;;;;;0.98;0.10;;;;;;;9.64;100.00;99710.44;5091796;28;20455;-69
2023/11/10 08:13:34;;;;;;;0.68;0.10;;;;;;;9.69;100.00;99705.59;5091331;28;20020;-69
2023/11/10 08:16:00;;;;;;;1.40;0.47;;;;;;;9.76;100.00;99704.00;5092248;28;20038;-69
2023/11/10 08:18:26;;;;;;;0.60;0.20;;;;;;;9.86;100.00;99703.88;5092291;28;20031;-69
2023/11/10 08:20:52;;;;;;;0.65;0.17;;;;;;;9.94;100.00;99709.88;5092394;28;20066;-69
2023/11/10 08:23:18;;;;;;;1.75;0.17;;;;;;;10.05;100.00;99707.97;5087399;28;20032;-69
2023/11/10 08:25:45;;;;;;;0.85;0.20;;;;;;;10.09;100.00;99717.88;5091376;28;20028;-69
2023/11/10 08:28:11;;;;;;;0.73;0.10;;;;;;;10.10;100.00;99722.13;5091629;28;20476;-69
2023/11/10 08:30:37;;;;;;;0.50;0.10;;;;;;;10.05;100.00;99723.56;5091357;28;20054;-69
2023/11/10 08:33:02;;;;;;;1.48;0.15;;;;;;;9.93;100.00;99730.84;5091987;28;20577;-69
2023/11/10 08:35:28;;;;;;;0.40;0.10;;;;;;;9.93;100.00;99728.25;5090933;28;20442;-69
2023/11/10 08:37:53;;;;;;;1.02;0.03;;;;;;;9.96;100.00;99733.94;5091575;28;20055;-69
2023/11/10 08:40:19;;;;;;;0.38;0.10;;;;;;;9.99;100.00;99722.41;5091254;28;20024;-69
2023/11/10 08:42:44;;;;;;;0.68;0.10;;;;;;;10.02;100.00;99714.28;5090178;28;20463;-69
2023/11/10 08:45:11;;;;;;;1.05;0.20;;;;;;;10.04;100.00;99712.34;5091522;28;20027;-69
2023/11/10 08:47:40;;;;;;;3.22;0.60;;;;;;;9.99;100.00;99705.00;5090410;28;20489;-69
2023/11/10 08:50:09;;;;;;;3.15;0.50;;;;;;;9.93;100.00;99707.44;5089795;28;20028;-69
2023/11/10 08:52:37;;;;;;;0.93;0.28;;;;;;;9.89;100.00;99712.16;5090254;28;20040;-69
2023/11/10 08:55:02;;;;;;;0.80;0.30;;;;;;;9.92;100.00;99709.22;5091167;28;20036;-69
2023/11/10 08:57:29;;;;;;;2.47;0.15;;;;;;;9.98;100.00;99698.19;5087283;28;20096;-69
2023/11/10 08:59:54;;;;;;;1.15;0.17;;;;;;;9.99;100.00;99710.22;5090981;28;20024;-69
2023/11/10 09:02:20;;;;;;;0.30;0.10;;;;;;;10.04;100.00;99701.94;5090836;28;20110;-69
2023/11/10 09:04:48;;;;;;;0.50;0.10;;;;;;;10.06;100.00;99707.78;5090112;28;20042;-69
2023/11/10 09:07:13;;;;;;;0.22;0.05;;;;;;;10.08;100.00;99710.25;5090681;28;20039;-69
2023/11/10 09:09:39;;;;;;;0.30;0.08;;;;;;;10.10;100.00;99708.28;5090491;28;20024;-69
2023/11/10 09:12:05;;;;;;;4.18;0.10;;;;;;;10.11;100.00;99707.31;5090221;28;20024;-69
2023/11/10 09:14:31;;;;;;;0.30;0.03;;;;;;;10.07;100.00;99703.41;5089978;28;20379;-69
2023/11/10 09:16:56;;;;;;;1.17;0.00;;;;;;;10.03;100.00;99705.50;5090861;28;20032;-69
2023/11/10 09:19:21;;;;;;;0.43;0.10;;;;;;;10.03;100.00;99697.72;5090506;28;20039;-69
2023/11/10 09:21:47;;;;;;;0.45;0.10;;;;;;;10.08;100.00;99687.63;5089169;28;21564;-69
2023/11/10 09:24:12;;;;;;;0.70;0.20;;;;;;;10.13;100.00;99687.97;5090622;28;20036;-69
2023/11/10 09:26:38;;;;;;;1.17;0.10;;;;;;;10.16;100.00;99681.63;5089193;28;20495;-69
2023/11/10 09:29:05;;;;;;;1.25;0.30;;;;;;;10.19;100.00;99686.53;5090318;28;20024;-69
2023/11/10 09:31:30;;;;;;;0.30;0.10;;;;;;;10.18;100.00;99682.28;5089873;28;20090;-69
2023/11/10 09:33:57;;;;;;;0.88;0.10;;;;;;;10.18;100.00;99680.50;5090389;28;20487;-70
2023/11/10 09:36:24;;;;;;;0.45;0.10;;;;;;;10.20;100.00;99690.78;5090364;28;20119;-70
2023/11/10 09:38:51;;;;;;;0.45;0.10;;;;;;;10.17;100.00;99689.28;5090192;28;20428;-69
2023/11/10 09:41:21;;;;;;;0.88;0.10;;;;;;;10.20;100.00;99681.19;5089649;28;20028;-69
2023/11/10 09:43:48;;;;;;;0.20;0.10;;;;;;;10.25;100.00;99684.13;5087950;28;20051;-69
2023/11/10 09:46:17;;;;;;;0.20;0.10;;;;;;;10.31;100.00;99674.84;5089674;28;20100;-69
2023/11/10 09:48:43;;;;;;;0.52;0.10;;;;;;;10.37;100.00;99681.19;5089129;28;20036;-69
2023/11/10 09:51:11;;;;;;;0.13;0.05;;;;;;;10.43;100.00;99670.13;5090051;28;20119;-70
2023/11/10 09:53:38;;;;;;;0.17;0.08;;;;;;;10.49;100.00;99672.88;5088934;28;20036;-69
2023/11/10 09:56:05;;;;;;;0.50;0.00;;;;;;;10.50;100.00;99681.50;5069013;28;20040;-70
2023/11/10 09:58:33;;;;;;;0.20;0.10;;;;;;;10.51;100.00;99680.53;5087081;28;20498;-70
2023/11/10 10:01:00;;;;;;;0.20;0.03;;;;;;;10.44;100.00;99674.34;5090054;28;20034;-69
2023/11/10 10:03:25;;;;;;;0.50;0.10;;;;;;;10.44;100.00;99669.94;5090212;28;20093;-70
2023/11/10 10:05:51;;;;;;;0.38;0.10;;;;;;;10.46;100.00;99670.59;5088662;28;20024;-69
2023/11/10 10:08:19;;;;;;;0.52;0.10;;;;;;;10.41;100.00;99654.66;5089908;28;20077;-69
2023/11/10 10:10:48;;;;;;;0.88;0.10;;;;;;;10.38;100.00;99657.59;5089428;28;20449;-69
2023/11/10 10:13:13;;;;;;;1.38;0.10;;;;;;;10.33;100.00;99654.69;5091035;28;20032;-69
2023/11/10 10:15:39;;;;;;;0.45;0.10;;;;;;;10.27;100.00;99650.94;5096161;28;20038;-69
2023/11/10 10:18:09;;;;;;;0.77;0.10;;;;;;;10.19;100.00;99643.09;5093369;28;20032;-69
2023/11/10 10:20:36;;;;;;;0.35;0.08;;;;;;;10.14;100.00;99637.53;5095790;28;20085;-69
2023/11/10 10:23:01;;;;;;;1.58;0.10;;;;;;;10.09;100.00;99633.78;5091849;28;20114;-69
2023/11/10 10:25:27;;;;;;;0.10;0.00;;;;;;;10.08;100.00;99642.56;5092338;28;20131;-69
2023/11/10 10:27:53;;;;;;;0.82;0.00;;;;;;;10.14;100.00;99645.34;5089983;28;20031;-70
2023/11/10 10:30:19;;;;;;;0.40;0.10;;;;;;;10.22;100.00;99639.38;5090087;28;20028;-69
2023/11/10 10:32:46;;;;;;;0.52;0.10;;;;;;;10.27;100.00;99644.91;5088588;28;20430;-69
2023/11/10 10:35:15;;;;;;;0.65;0.13;;;;;;;10.33;100.00;99643.44;5089837;28;20123;-69
2023/11/10 10:37:42;;;;;;;1.25;0.20;;;;;;;10.39;100.00;99645.41;5092453;28;20089;-69
2023/11/10 10:40:11;;;;;;;0.77;0.10;;;;;;;10.46;100.00;99652.38;5091332;28;20028;-69
2023/11/10 10:42:40;;;;;;;1.17;0.20;;;;;;;10.52;100.00;99643.91;5091859;28;20032;-69
2023/11/10 10:45:06;;;;;;;1.95;0.70;;;;;;;10.63;100.00;99647.97;5092565;28;20032;-69
2023/11/10 10:47:36;;;;;;;2.80;1.42;;;;;;;10.72;100.00;99649.59;5092299;28;20044;-69
2023/11/10 10:50:04;;;;;;;4.13;1.67;;;;;;;10.79;100.00;99645.34;5088358;28;20036;-69
2023/11/10 10:52:32;;;;;;;3.35;1.42;;;;;;;10.85;100.00;99636.06;5092084;28;20518;-69
2023/11/10 10:54:59;;;;;;;4.28;1.25;;;;;;;10.92;100.00;99627.38;5089250;28;20081;-69
2023/11/10 10:57:26;;;;;;;3.30;1.38;;;;;;;10.98;100.00;99607.66;5089858;28;20100;-69
2023/11/10 10:59:54;;;;;;;4.28;2.50;;;;;;;11.02;100.00;99605.53;5089298;28;20028;-69
2023/11/10 11:02:22;;;;;;;2.78;1.75;;;;;;;11.04;100.00;99585.34;5089336;28;20116;-69
2023/11/10 11:04:53;;;;;;;2.75;1.85;;;;;;;11.07;100.00;99595.44;5093264;28;20034;-69
2023/11/10 11:07:36;;;;;;;4.15;2.22;;;;;;;11.08;100.00;99594.44;5091923;28;20031;-69
2023/11/10 11:10:20;;;;;;;3.72;1.98;;;;;;;11.13;100.00;99599.97;5098419;28;20044;-69
2023/11/10 11:13:24;;;;;;;3.20;1.83;;;;;;;11.10;100.00;99600.31;5095711;28;20077;-69
2023/11/10 11:15:58;;;;;;;4.07;1.88;;;;;;;11.12;100.00;99587.91;5092792;28;20119;-69
2023/11/10 11:18:50;;;;;;;3.40;1.80;;;;;;;11.17;100.00;99586.44;5090768;28;20132;-69
2023/11/10 11:21:16;;;;;;;1.75;1.20;;;;;;;11.23;100.00;99577.13;5092988;28;20555;-69
2023/11/10 11:23:42;;;;;;;2.17;0.90;;;;;;;11.26;100.00;99580.19;5092130;28;20069;-69
2023/11/10 11:26:07;;;;;;;3.53;1.55;;;;;;;11.29;100.00;99579.84;5092963;28;20105;-69